sensor_id;sensor_type;location;lat;lon;timestamp;pressure;altitude;pressure_sealevel;temperature;humidity
49072;BME280;52656;52.610;10.236;2023-07-20T00:01:59;100785.72;;;15.86;77.82
49072;BME280;52656;52.610;10.236;2023-07-20T00:04:24;100781.13;;;15.88;75.91
49072;BME280;52656;52.610;10.236;2023-07-20T00:06:49;100775.31;;;15.81;78.40
49072;BME280;52656;52.610;10.236;2023-07-20T00:09:14;100779.97;;;15.78;76.60
49072;BME280;52656;52.610;10.236;2023-07-20T00:11:40;100769.63;;;15.71;78.41
49072;BME280;52656;52.610;10.236;2023-07-20T00:14:06;100767.03;;;15.70;77.18
49072;BME280;52656;52.610;10.236;2023-07-20T00:16:31;100770.66;;;15.69;77.69
49072;BME280;52656;52.610;10.236;2023-07-20T00:18:56;100769.97;;;15.65;77.22
49072;BME280;52656;52.610;10.236;2023-07-20T00:21:21;100771.13;;;15.61;79.52
49072;BME280;52656;52.610;10.236;2023-07-20T00:23:47;100773.22;;;15.56;77.52
49072;BME280;52656;52.610;10.236;2023-07-20T00:26:12;100774.34;;;15.52;79.02
49072;BME280;52656;52.610;10.236;2023-07-20T00:28:37;100779.09;;;15.47;77.73
49072;BME280;52656;52.610;10.236;2023-07-20T00:31:03;100774.13;;;15.41;79.12
49072;BME280;52656;52.610;10.236;2023-07-20T00:33:29;100769.81;;;15.38;77.36
49072;BME280;52656;52.610;10.236;2023-07-20T00:35:54;100767.44;;;15.34;79.74
49072;BME280;52656;52.610;10.236;2023-07-20T00:38:19;100769.34;;;15.32;78.19
49072;BME280;52656;52.610;10.236;2023-07-20T00:40:45;100769.41;;;15.30;80.01
49072;BME280;52656;52.610;10.236;2023-07-20T00:43:11;100771.31;;;15.28;78.52
49072;BME280;52656;52.610;10.236;2023-07-20T00:45:36;100775.72;;;15.29;78.95
49072;BME280;52656;52.610;10.236;2023-07-20T00:48:02;100778.06;;;15.19;78.58
49072;BME280;52656;52.610;10.236;2023-07-20T00:50:29;100776.31;;;15.04;79.84
49072;BME280;52656;52.610;10.236;2023-07-20T00:52:55;100777.94;;;14.91;81.58
49072;BME280;52656;52.610;10.236;2023-07-20T00:55:23;100787.16;;;14.85;81.29
49072;BME280;52656;52.610;10.236;2023-07-20T00:57:48;100779.34;;;14.82;80.93
49072;BME280;52656;52.610;10.236;2023-07-20T01:00:13;100787.50;;;14.79;82.75
49072;BME280;52656;52.610;10.236;2023-07-20T01:02:39;100782.34;;;14.76;81.21
49072;BME280;52656;52.610;10.236;2023-07-20T01:05:04;100783.38;;;14.73;82.22
49072;BME280;52656;52.610;10.236;2023-07-20T01:07:35;100773.91;;;14.68;80.37
49072;BME280;52656;52.610;10.236;2023-07-20T01:10:11;100781.19;;;14.64;80.12
49072;BME280;52656;52.610;10.236;2023-07-20T01:12:43;100780.59;;;14.59;80.29
49072;BME280;52656;52.610;10.236;2023-07-20T01:15:09;100780.75;;;14.56;80.51
49072;BME280;52656;52.610;10.236;2023-07-20T01:17:35;100774.81;;;14.51;80.13
49072;BME280;52656;52.610;10.236;2023-07-20T01:20:01;100775.84;;;14.48;81.48
49072;BME280;52656;52.610;10.236;2023-07-20T01:25:42;100777.31;;;14.38;80.77
49072;BME280;52656;52.610;10.236;2023-07-20T01:33:25;100786.34;;;14.03;82.67
49072;BME280;52656;52.610;10.236;2023-07-20T01:35:58;100786.53;;;14.00;83.35
49072;BME280;52656;52.610;10.236;2023-07-20T01:38:25;100785.44;;;14.04;82.99
49072;BME280;52656;52.610;10.236;2023-07-20T01:40:51;100783.53;;;14.06;83.29
49072;BME280;52656;52.610;10.236;2023-07-20T01:43:16;100786.03;;;14.09;85.56
49072;BME280;52656;52.610;10.236;2023-07-20T01:45:42;100786.81;;;14.11;84.48
49072;BME280;52656;52.610;10.236;2023-07-20T01:48:08;100782.38;;;14.27;82.50
49072;BME280;52656;52.610;10.236;2023-07-20T01:50:33;100776.44;;;14.38;83.61
49072;BME280;52656;52.610;10.236;2023-07-20T01:52:59;100781.63;;;14.41;82.31
49072;BME280;52656;52.610;10.236;2023-07-20T01:55:25;100781.63;;;14.41;83.72
49072;BME280;52656;52.610;10.236;2023-07-20T01:57:50;100784.44;;;14.38;82.41
49072;BME280;52656;52.610;10.236;2023-07-20T02:00:15;100790.63;;;14.38;83.26
49072;BME280;52656;52.610;10.236;2023-07-20T02:02:41;100785.25;;;14.40;81.15
49072;BME280;52656;52.610;10.236;2023-07-20T02:05:06;100781.03;;;14.36;82.46
49072;BME280;52656;52.610;10.236;2023-07-20T02:07:31;100784.84;;;14.30;81.19
49072;BME280;52656;52.610;10.236;2023-07-20T02:09:57;100790.78;;;14.19;82.73
49072;BME280;52656;52.610;10.236;2023-07-20T02:12:22;100782.34;;;14.11;82.52
49072;BME280;52656;52.610;10.236;2023-07-20T02:14:47;100782.59;;;14.07;84.46
49072;BME280;52656;52.610;10.236;2023-07-20T02:17:13;100776.25;;;14.09;82.67
49072;BME280;52656;52.610;10.236;2023-07-20T02:19:38;100778.81;;;14.11;82.85
49072;BME280;52656;52.610;10.236;2023-07-20T02:22:03;100780.53;;;14.12;80.88
49072;BME280;52656;52.610;10.236;2023-07-20T02:24:29;100780.88;;;14.06;81.10
49072;BME280;52656;52.610;10.236;2023-07-20T02:26:54;100778.78;;;13.95;82.29
49072;BME280;52656;52.610;10.236;2023-07-20T02:29:19;100786.31;;;13.87;81.36
49072;BME280;52656;52.610;10.236;2023-07-20T02:31:45;100787.91;;;13.73;82.91
49072;BME280;52656;52.610;10.236;2023-07-20T02:34:10;100787.38;;;13.67;82.35
49072;BME280;52656;52.610;10.236;2023-07-20T02:36:35;100782.03;;;13.50;85.29
49072;BME280;52656;52.610;10.236;2023-07-20T02:39:01;100780.28;;;13.48;84.23
49072;BME280;52656;52.610;10.236;2023-07-20T02:41:33;100784.53;;;13.35;85.13
49072;BME280;52656;52.610;10.236;2023-07-20T02:43:58;100783.09;;;13.28;85.86
49072;BME280;52656;52.610;10.236;2023-07-20T02:46:24;100784.91;;;13.28;87.30
49072;BME280;52656;52.610;10.236;2023-07-20T02:48:49;100787.19;;;13.35;85.98
49072;BME280;52656;52.610;10.236;2023-07-20T02:51:14;100793.03;;;13.42;87.12
49072;BME280;52656;52.610;10.236;2023-07-20T02:53:39;100784.50;;;13.53;85.30
49072;BME280;52656;52.610;10.236;2023-07-20T02:56:05;100789.53;;;13.59;85.21
49072;BME280;52656;52.610;10.236;2023-07-20T02:58:30;100789.84;;;13.70;84.28
49072;BME280;52656;52.610;10.236;2023-07-20T03:00:55;100782.81;;;13.69;86.04
49072;BME280;52656;52.610;10.236;2023-07-20T03:03:20;100786.94;;;13.75;84.86
49072;BME280;52656;52.610;10.236;2023-07-20T03:05:46;100785.84;;;13.79;85.63
49072;BME280;52656;52.610;10.236;2023-07-20T03:08:11;100796.34;;;13.82;84.20
49072;BME280;52656;52.610;10.236;2023-07-20T03:10:39;100790.22;;;13.80;85.18
49072;BME280;52656;52.610;10.236;2023-07-20T03:13:06;100794.56;;;13.82;83.39
49072;BME280;52656;52.610;10.236;2023-07-20T03:15:31;100797.13;;;13.84;84.26
49072;BME280;52656;52.610;10.236;2023-07-20T03:17:56;100804.16;;;13.85;83.53
49072;BME280;52656;52.610;10.236;2023-07-20T03:20:23;100801.50;;;13.85;83.62
49072;BME280;52656;52.610;10.236;2023-07-20T03:22:49;100797.31;;;13.81;85.00
49072;BME280;52656;52.610;10.236;2023-07-20T03:25:14;100796.25;;;13.83;84.52
49072;BME280;52656;52.610;10.236;2023-07-20T03:27:39;100799.31;;;13.76;85.63
49072;BME280;52656;52.610;10.236;2023-07-20T03:30:05;100804.25;;;13.83;84.35
49072;BME280;52656;52.610;10.236;2023-07-20T03:32:32;100806.44;;;13.92;83.72
49072;BME280;52656;52.610;10.236;2023-07-20T03:34:57;100797.81;;;13.87;85.11
49072;BME280;52656;52.610;10.236;2023-07-20T03:37:22;100800.84;;;13.97;83.96
49072;BME280;52656;52.610;10.236;2023-07-20T03:39:48;100804.06;;;14.04;84.33
49072;BME280;52656;52.610;10.236;2023-07-20T03:42:14;100802.03;;;14.09;83.36
49072;BME280;52656;52.610;10.236;2023-07-20T03:44:39;100800.91;;;14.13;83.66
49072;BME280;52656;52.610;10.236;2023-07-20T03:47:04;100810.63;;;14.14;84.53
49072;BME280;52656;52.610;10.236;2023-07-20T03:49:30;100806.66;;;14.21;83.00
49072;BME280;52656;52.610;10.236;2023-07-20T03:51:55;100801.44;;;14.19;84.27
49072;BME280;52656;52.610;10.236;2023-07-20T03:54:20;100803.69;;;14.27;82.93
49072;BME280;52656;52.610;10.236;2023-07-20T03:56:46;100807.31;;;14.26;84.30
49072;BME280;52656;52.610;10.236;2023-07-20T03:59:11;100808.59;;;14.35;82.59
49072;BME280;52656;52.610;10.236;2023-07-20T04:01:37;100807.66;;;14.36;83.58
49072;BME280;52656;52.610;10.236;2023-07-20T04:04:06;100804.50;;;14.45;81.94
49072;BME280;52656;52.610;10.236;2023-07-20T04:06:32;100804.84;;;14.55;81.42
49072;BME280;52656;52.610;10.236;2023-07-20T04:08:57;100811.38;;;14.65;81.91
49072;BME280;52656;52.610;10.236;2023-07-20T04:11:23;100811.22;;;14.68;80.87
49072;BME280;52656;52.610;10.236;2023-07-20T04:13:48;100795.97;;;14.70;80.67
49072;BME280;52656;52.610;10.236;2023-07-20T04:16:14;100801.78;;;14.78;80.04
49072;BME280;52656;52.610;10.236;2023-07-20T04:18:39;100799.81;;;14.82;81.97
49072;BME280;52656;52.610;10.236;2023-07-20T04:21:05;100801.00;;;14.92;80.36
49072;BME280;52656;52.610;10.236;2023-07-20T04:23:30;100799.63;;;15.01;81.31
49072;BME280;52656;52.610;10.236;2023-07-20T04:25:55;100798.06;;;15.12;79.58
49072;BME280;52656;52.610;10.236;2023-07-20T04:28:22;100805.53;;;15.21;78.62
49072;BME280;52656;52.610;10.236;2023-07-20T04:30:48;100800.84;;;15.25;80.43
49072;BME280;52656;52.610;10.236;2023-07-20T04:33:14;100802.41;;;15.29;78.34
49072;BME280;52656;52.610;10.236;2023-07-20T04:35:53;100800.41;;;15.33;78.20
49072;BME280;52656;52.610;10.236;2023-07-20T04:38:19;100809.28;;;15.33;77.99
49072;BME280;52656;52.610;10.236;2023-07-20T04:40:45;100808.16;;;15.37;79.68
49072;BME280;52656;52.610;10.236;2023-07-20T04:43:10;100808.91;;;15.39;77.75
49072;BME280;52656;52.610;10.236;2023-07-20T04:45:35;100816.84;;;15.41;79.03
49072;BME280;52656;52.610;10.236;2023-07-20T04:48:00;100818.66;;;15.40;78.80
49072;BME280;52656;52.610;10.236;2023-07-20T04:50:26;100823.03;;;15.41;79.27
49072;BME280;52656;52.610;10.236;2023-07-20T04:52:51;100817.59;;;15.43;78.30
49072;BME280;52656;52.610;10.236;2023-07-20T04:55:17;100820.28;;;15.43;79.28
49072;BME280;52656;52.610;10.236;2023-07-20T04:57:42;100824.59;;;15.45;78.63
49072;BME280;52656;52.610;10.236;2023-07-20T05:00:07;100823.72;;;15.45;78.16
49072;BME280;52656;52.610;10.236;2023-07-20T05:02:35;100823.78;;;15.43;77.46
49072;BME280;52656;52.610;10.236;2023-07-20T05:05:00;100833.72;;;15.41;78.32
49072;BME280;52656;52.610;10.236;2023-07-20T05:07:26;100830.25;;;15.39;79.49
49072;BME280;52656;52.610;10.236;2023-07-20T05:09:52;100833.53;;;15.44;78.66
49072;BME280;52656;52.610;10.236;2023-07-20T05:12:17;100831.75;;;15.45;80.18
49072;BME280;52656;52.610;10.236;2023-07-20T05:14:42;100836.00;;;15.47;79.13
49072;BME280;52656;52.610;10.236;2023-07-20T05:17:07;100837.94;;;15.45;78.41
49072;BME280;52656;52.610;10.236;2023-07-20T05:19:33;100840.28;;;15.36;78.88
49072;BME280;52656;52.610;10.236;2023-07-20T05:21:58;100846.53;;;15.35;80.52
49072;BME280;52656;52.610;10.236;2023-07-20T05:24:23;100840.28;;;15.36;79.25
49072;BME280;52656;52.610;10.236;2023-07-20T05:26:48;100843.88;;;15.35;80.70
49072;BME280;52656;52.610;10.236;2023-07-20T05:29:14;100852.16;;;15.30;79.87
49072;BME280;52656;52.610;10.236;2023-07-20T05:31:39;100853.22;;;15.28;80.06
49072;BME280;52656;52.610;10.236;2023-07-20T05:34:04;100855.28;;;15.22;81.27
49072;BME280;52656;52.610;10.236;2023-07-20T05:36:30;100856.50;;;15.17;81.59
49072;BME280;52656;52.610;10.236;2023-07-20T05:38:56;100865.38;;;15.17;81.89
49072;BME280;52656;52.610;10.236;2023-07-20T05:41:21;100857.53;;;15.14;81.74
49072;BME280;52656;52.610;10.236;2023-07-20T05:43:47;100860.09;;;15.16;81.64
49072;BME280;52656;52.610;10.236;2023-07-20T05:46:13;100859.75;;;15.22;81.24
49072;BME280;52656;52.610;10.236;2023-07-20T05:48:38;100851.22;;;15.15;81.59
49072;BME280;52656;52.610;10.236;2023-07-20T05:51:03;100846.22;;;15.25;81.59
49072;BME280;52656;52.610;10.236;2023-07-20T05:53:28;100846.47;;;15.36;80.26
49072;BME280;52656;52.610;10.236;2023-07-20T05:55:54;100848.47;;;15.63;80.93
49072;BME280;52656;52.610;10.236;2023-07-20T05:58:19;100842.16;;;15.94;78.61
49072;BME280;52656;52.610;10.236;2023-07-20T06:00:47;100851.09;;;16.23;78.64
49072;BME280;52656;52.610;10.236;2023-07-20T06:03:12;100846.41;;;16.41;76.84
49072;BME280;52656;52.610;10.236;2023-07-20T06:05:38;100845.91;;;16.48;76.26
49072;BME280;52656;52.610;10.236;2023-07-20T06:08:03;100851.25;;;16.48;76.20
49072;BME280;52656;52.610;10.236;2023-07-20T06:10:28;100856.44;;;16.51;76.54
49072;BME280;52656;52.610;10.236;2023-07-20T06:12:54;100850.22;;;16.65;75.62
49072;BME280;52656;52.610;10.236;2023-07-20T06:15:27;100858.53;;;16.75;75.30
49072;BME280;52656;52.610;10.236;2023-07-20T06:17:54;100841.44;;;16.78;75.45
49072;BME280;52656;52.610;10.236;2023-07-20T06:20:19;100850.22;;;16.65;75.77
49072;BME280;52656;52.610;10.236;2023-07-20T06:22:44;100847.19;;;16.71;75.63
49072;BME280;52656;52.610;10.236;2023-07-20T06:25:10;100835.94;;;17.08;74.05
49072;BME280;52656;52.610;10.236;2023-07-20T06:27:36;100841.75;;;17.54;72.77
49072;BME280;52656;52.610;10.236;2023-07-20T06:30:01;100838.19;;;17.93;70.93
49072;BME280;52656;52.610;10.236;2023-07-20T06:32:26;100845.53;;;18.17;69.79
49072;BME280;52656;52.610;10.236;2023-07-20T06:34:52;100841.44;;;18.11;69.40
49072;BME280;52656;52.610;10.236;2023-07-20T06:37:17;100851.81;;;18.16;67.82
49072;BME280;52656;52.610;10.236;2023-07-20T06:39:42;100852.19;;;18.49;67.73
49072;BME280;52656;52.610;10.236;2023-07-20T06:42:07;100848.38;;;18.77;67.26
49072;BME280;52656;52.610;10.236;2023-07-20T06:44:33;100847.28;;;19.17;65.65
49072;BME280;52656;52.610;10.236;2023-07-20T06:46:58;100854.59;;;19.39;65.19
49072;BME280;52656;52.610;10.236;2023-07-20T06:49:24;100858.31;;;19.84;63.58
49072;BME280;52656;52.610;10.236;2023-07-20T06:51:51;100855.19;;;20.01;62.73
49072;BME280;52656;52.610;10.236;2023-07-20T06:54:16;100854.03;;;19.82;61.94
49072;BME280;52656;52.610;10.236;2023-07-20T06:56:41;100861.22;;;20.16;62.08
49072;BME280;52656;52.610;10.236;2023-07-20T06:59:06;100856.34;;;21.00;59.19
49072;BME280;52656;52.610;10.236;2023-07-20T07:01:32;100854.75;;;22.15;55.55
49072;BME280;52656;52.610;10.236;2023-07-20T07:03:57;100856.38;;;22.48;53.93
49072;BME280;52656;52.610;10.236;2023-07-20T07:06:22;100862.47;;;21.77;56.08
49072;BME280;52656;52.610;10.236;2023-07-20T07:08:48;100854.91;;;21.92;54.44
49072;BME280;52656;52.610;10.236;2023-07-20T07:11:13;100853.41;;;22.51;54.14
49072;BME280;52656;52.610;10.236;2023-07-20T07:13:39;100856.78;;;22.84;51.10
49072;BME280;52656;52.610;10.236;2023-07-20T07:16:04;100858.03;;;23.20;52.08
49072;BME280;52656;52.610;10.236;2023-07-20T07:18:29;100865.19;;;23.21;51.17
49072;BME280;52656;52.610;10.236;2023-07-20T07:20:55;100863.44;;;23.20;51.67
49072;BME280;52656;52.610;10.236;2023-07-20T07:23:20;100867.91;;;23.50;50.69
49072;BME280;52656;52.610;10.236;2023-07-20T07:25:46;100861.22;;;24.49;48.34
49072;BME280;52656;52.610;10.236;2023-07-20T07:28:12;100850.66;;;25.65;45.59
49072;BME280;52656;52.610;10.236;2023-07-20T07:30:37;100856.81;;;26.63;43.86
49072;BME280;52656;52.610;10.236;2023-07-20T07:33:03;100860.50;;;27.95;40.95
49072;BME280;52656;52.610;10.236;2023-07-20T07:35:29;100862.31;;;27.21;42.58
49072;BME280;52656;52.610;10.236;2023-07-20T07:37:54;100864.78;;;28.78;39.13
49072;BME280;52656;52.610;10.236;2023-07-20T07:40:19;100856.63;;;30.39;36.48
49072;BME280;52656;52.610;10.236;2023-07-20T07:42:44;100856.59;;;30.98;35.37
49072;BME280;52656;52.610;10.236;2023-07-20T07:45:10;100869.16;;;32.14;32.81
49072;BME280;52656;52.610;10.236;2023-07-20T07:47:35;100870.59;;;33.21;32.05
49072;BME280;52656;52.610;10.236;2023-07-20T07:50:01;100877.75;;;33.15;31.63
49072;BME280;52656;52.610;10.236;2023-07-20T07:52:26;100868.38;;;33.91;30.44
49072;BME280;52656;52.610;10.236;2023-07-20T07:54:52;100867.78;;;35.38;28.20
49072;BME280;52656;52.610;10.236;2023-07-20T07:57:17;100876.22;;;34.20;28.21
49072;BME280;52656;52.610;10.236;2023-07-20T07:59:42;100877.72;;;35.01;27.59
49072;BME280;52656;52.610;10.236;2023-07-20T08:02:07;100875.97;;;34.55;27.77
49072;BME280;52656;52.610;10.236;2023-07-20T08:04:33;100880.00;;;30.71;33.32
49072;BME280;52656;52.610;10.236;2023-07-20T08:06:59;100877.50;;;31.05;33.52
49072;BME280;52656;52.610;10.236;2023-07-20T08:09:24;100875.25;;;31.09;32.83
49072;BME280;52656;52.610;10.236;2023-07-20T08:11:50;100879.72;;;35.25;27.78
49072;BME280;52656;52.610;10.236;2023-07-20T08:14:15;100876.03;;;37.48;25.12
49072;BME280;52656;52.610;10.236;2023-07-20T08:16:40;100878.22;;;37.28;24.85
49072;BME280;52656;52.610;10.236;2023-07-20T08:19:06;100872.19;;;39.76;22.04
49072;BME280;52656;52.610;10.236;2023-07-20T08:21:31;100876.91;;;40.09;20.86
49072;BME280;52656;52.610;10.236;2023-07-20T08:23:56;100876.97;;;41.41;19.92
49072;BME280;52656;52.610;10.236;2023-07-20T08:26:23;100867.19;;;42.35;18.67
49072;BME280;52656;52.610;10.236;2023-07-20T08:28:48;100872.78;;;40.28;20.85
49072;BME280;52656;52.610;10.236;2023-07-20T08:31:14;100872.84;;;41.16;18.99
49072;BME280;52656;52.610;10.236;2023-07-20T08:33:39;100877.41;;;40.23;18.44
49072;BME280;52656;52.610;10.236;2023-07-20T08:36:05;100870.59;;;39.97;20.41
49072;BME280;52656;52.610;10.236;2023-07-20T08:38:31;100885.19;;;34.94;25.29
49072;BME280;52656;52.610;10.236;2023-07-20T08:40:56;100879.69;;;33.21;27.61
49072;BME280;52656;52.610;10.236;2023-07-20T08:43:23;100882.56;;;31.81;29.11
49072;BME280;52656;52.610;10.236;2023-07-20T08:45:54;100876.41;;;30.85;30.72
49072;BME280;52656;52.610;10.236;2023-07-20T08:48:20;100888.97;;;33.33;28.26
49072;BME280;52656;52.610;10.236;2023-07-20T08:50:49;100879.19;;;31.21;31.33
49072;BME280;52656;52.610;10.236;2023-07-20T08:53:14;100886.59;;;30.76;31.71
49072;BME280;52656;52.610;10.236;2023-07-20T08:55:40;100883.28;;;31.32;30.69
49072;BME280;52656;52.610;10.236;2023-07-20T08:58:08;100887.88;;;30.36;31.83
49072;BME280;52656;52.610;10.236;2023-07-20T09:00:34;100875.81;;;33.97;27.85
49072;BME280;52656;52.610;10.236;2023-07-20T09:03:02;100878.25;;;34.65;25.08
49072;BME280;52656;52.610;10.236;2023-07-20T09:05:27;100869.28;;;34.82;24.88
49072;BME280;52656;52.610;10.236;2023-07-20T09:07:53;100877.75;;;36.82;23.91
49072;BME280;52656;52.610;10.236;2023-07-20T09:10:22;100880.31;;;36.84;21.97
49072;BME280;52656;52.610;10.236;2023-07-20T09:12:47;100869.56;;;36.76;21.84
49072;BME280;52656;52.610;10.236;2023-07-20T09:15:13;100862.34;;;36.13;22.26
49072;BME280;52656;52.610;10.236;2023-07-20T09:17:38;100866.44;;;37.21;22.70
49072;BME280;52656;52.610;10.236;2023-07-20T09:20:05;100860.13;;;36.22;21.55
49072;BME280;52656;52.610;10.236;2023-07-20T09:22:33;100863.00;;;36.33;22.14
49072;BME280;52656;52.610;10.236;2023-07-20T09:24:59;100851.13;;;37.06;21.54
49072;BME280;52656;52.610;10.236;2023-07-20T09:27:47;100855.28;;;36.79;22.45
49072;BME280;52656;52.610;10.236;2023-07-20T09:30:16;100853.16;;;33.55;25.23
49072;BME280;52656;52.610;10.236;2023-07-20T09:35:15;100860.94;;;31.43;27.80
49072;BME280;52656;52.610;10.236;2023-07-20T09:37:50;100857.56;;;30.46;28.60
49072;BME280;52656;52.610;10.236;2023-07-20T09:40:19;100861.00;;;30.25;28.96
49072;BME280;52656;52.610;10.236;2023-07-20T09:42:45;100867.97;;;30.27;29.40
49072;BME280;52656;52.610;10.236;2023-07-20T09:45:11;100864.16;;;34.01;24.59
49072;BME280;52656;52.610;10.236;2023-07-20T09:47:37;100860.84;;;35.61;23.54
49072;BME280;52656;52.610;10.236;2023-07-20T09:50:07;100862.59;;;37.22;21.61
49072;BME280;52656;52.610;10.236;2023-07-20T09:52:39;100861.88;;;36.78;21.03
49072;BME280;52656;52.610;10.236;2023-07-20T09:55:07;100857.56;;;34.49;23.61
49072;BME280;52656;52.610;10.236;2023-07-20T09:57:33;100852.69;;;33.45;24.56
49072;BME280;52656;52.610;10.236;2023-07-20T09:59:59;100860.75;;;35.74;22.70
49072;BME280;52656;52.610;10.236;2023-07-20T10:02:33;100853.97;;;35.76;22.52
49072;BME280;52656;52.610;10.236;2023-07-20T10:05:02;100847.22;;;36.96;21.79
49072;BME280;52656;52.610;10.236;2023-07-20T10:07:30;100850.34;;;36.99;20.63
49072;BME280;52656;52.610;10.236;2023-07-20T10:09:56;100863.34;;;36.62;21.06
49072;BME280;52656;52.610;10.236;2023-07-20T10:12:25;100858.63;;;36.99;20.30
49072;BME280;52656;52.610;10.236;2023-07-20T10:15:03;100854.72;;;37.07;19.63
49072;BME280;52656;52.610;10.236;2023-07-20T10:17:31;100848.75;;;34.85;20.63
49072;BME280;52656;52.610;10.236;2023-07-20T10:19:57;100851.34;;;36.68;19.95
49072;BME280;52656;52.610;10.236;2023-07-20T10:22:27;100851.75;;;34.77;20.28
49072;BME280;52656;52.610;10.236;2023-07-20T10:24:54;100844.84;;;34.54;21.97
49072;BME280;52656;52.610;10.236;2023-07-20T10:27:21;100843.16;;;33.21;22.92
49072;BME280;52656;52.610;10.236;2023-07-20T10:29:47;100853.25;;;32.03;24.09
49072;BME280;52656;52.610;10.236;2023-07-20T10:32:13;100843.84;;;31.05;25.71
49072;BME280;52656;52.610;10.236;2023-07-20T10:34:39;100841.06;;;30.54;25.21
49072;BME280;52656;52.610;10.236;2023-07-20T10:37:04;100847.63;;;30.15;26.38
49072;BME280;52656;52.610;10.236;2023-07-20T10:39:33;100845.94;;;30.73;26.41
49072;BME280;52656;52.610;10.236;2023-07-20T10:42:03;100841.78;;;32.49;24.00
49072;BME280;52656;52.610;10.236;2023-07-20T10:44:31;100839.63;;;32.86;23.22
49072;BME280;52656;52.610;10.236;2023-07-20T10:47:03;100825.69;;;33.81;23.25
49072;BME280;52656;52.610;10.236;2023-07-20T10:49:34;100832.47;;;33.72;22.88
49072;BME280;52656;52.610;10.236;2023-07-20T10:52:04;100830.06;;;33.36;22.32
49072;BME280;52656;52.610;10.236;2023-07-20T10:56:56;100831.00;;;33.96;21.69
49072;BME280;52656;52.610;10.236;2023-07-20T11:01:56;100822.75;;;33.96;22.44
49072;BME280;52656;52.610;10.236;2023-07-20T11:04:44;100834.66;;;33.09;23.27
49072;BME280;52656;52.610;10.236;2023-07-20T11:07:15;100840.44;;;32.10;23.48
49072;BME280;52656;52.610;10.236;2023-07-20T11:09:41;100822.19;;;31.46;23.42
49072;BME280;52656;52.610;10.236;2023-07-20T11:12:15;100838.69;;;30.36;24.82
49072;BME280;52656;52.610;10.236;2023-07-20T11:15:01;100838.50;;;30.08;25.15
49072;BME280;52656;52.610;10.236;2023-07-20T11:17:30;100835.84;;;29.08;25.64
49072;BME280;52656;52.610;10.236;2023-07-20T11:19:57;100842.13;;;29.40;24.94
49072;BME280;52656;52.610;10.236;2023-07-20T11:22:23;100837.47;;;29.17;24.45
49072;BME280;52656;52.610;10.236;2023-07-20T11:24:48;100839.59;;;28.68;25.21
49072;BME280;52656;52.610;10.236;2023-07-20T11:27:17;100836.47;;;28.31;26.04
49072;BME280;52656;52.610;10.236;2023-07-20T11:29:47;100835.16;;;27.87;25.42
49072;BME280;52656;52.610;10.236;2023-07-20T11:32:20;100839.25;;;26.91;26.50
49072;BME280;52656;52.610;10.236;2023-07-20T11:34:47;100840.59;;;26.87;27.81
49072;BME280;52656;52.610;10.236;2023-07-20T11:37:12;100837.81;;;27.13;28.15
49072;BME280;52656;52.610;10.236;2023-07-20T11:39:38;100845.66;;;27.16;26.83
49072;BME280;52656;52.610;10.236;2023-07-20T11:42:05;100832.91;;;27.33;26.90
49072;BME280;52656;52.610;10.236;2023-07-20T11:44:30;100828.53;;;27.48;27.94
49072;BME280;52656;52.610;10.236;2023-07-20T11:47:08;100848.38;;;27.32;26.50
49072;BME280;52656;52.610;10.236;2023-07-20T11:49:37;100836.16;;;26.78;27.63
49072;BME280;52656;52.610;10.236;2023-07-20T11:52:07;100832.72;;;26.68;28.18
49072;BME280;52656;52.610;10.236;2023-07-20T11:54:34;100834.56;;;26.59;29.30
49072;BME280;52656;52.610;10.236;2023-07-20T11:57:03;100837.53;;;26.48;28.51
49072;BME280;52656;52.610;10.236;2023-07-20T11:59:30;100836.56;;;26.49;28.84
49072;BME280;52656;52.610;10.236;2023-07-20T12:01:56;100825.66;;;25.35;29.36
49072;BME280;52656;52.610;10.236;2023-07-20T12:04:22;100831.56;;;25.48;29.45
49072;BME280;52656;52.610;10.236;2023-07-20T12:06:48;100834.31;;;26.18;28.83
49072;BME280;52656;52.610;10.236;2023-07-20T12:09:14;100821.00;;;26.67;28.75
49072;BME280;52656;52.610;10.236;2023-07-20T12:11:43;100824.47;;;26.86;30.17
49072;BME280;52656;52.610;10.236;2023-07-20T12:14:09;100819.28;;;27.25;28.20
49072;BME280;52656;52.610;10.236;2023-07-20T12:16:36;100828.34;;;27.42;28.79
49072;BME280;52656;52.610;10.236;2023-07-20T12:19:13;100821.03;;;27.50;28.08
49072;BME280;52656;52.610;10.236;2023-07-20T12:21:40;100820.50;;;27.47;27.88
49072;BME280;52656;52.610;10.236;2023-07-20T12:24:06;100823.34;;;27.04;28.32
49072;BME280;52656;52.610;10.236;2023-07-20T12:26:33;100829.81;;;27.03;28.25
49072;BME280;52656;52.610;10.236;2023-07-20T12:28:59;100827.31;;;27.35;26.17
49072;BME280;52656;52.610;10.236;2023-07-20T12:31:26;100831.38;;;27.47;27.46
49072;BME280;52656;52.610;10.236;2023-07-20T12:33:52;100830.88;;;27.27;28.19
49072;BME280;52656;52.610;10.236;2023-07-20T12:36:18;100818.97;;;27.28;26.98
49072;BME280;52656;52.610;10.236;2023-07-20T12:38:44;100825.59;;;27.33;27.45
49072;BME280;52656;52.610;10.236;2023-07-20T12:41:11;100828.88;;;27.53;27.34
49072;BME280;52656;52.610;10.236;2023-07-20T12:43:43;100826.19;;;27.62;27.10
49072;BME280;52656;52.610;10.236;2023-07-20T12:46:09;100825.94;;;27.39;27.71
49072;BME280;52656;52.610;10.236;2023-07-20T12:48:36;100825.97;;;27.96;26.99
49072;BME280;52656;52.610;10.236;2023-07-20T12:51:06;100827.84;;;28.03;26.87
49072;BME280;52656;52.610;10.236;2023-07-20T12:53:31;100828.16;;;28.08;26.87